Time;durP1;ratioP1;P1;durP2;ratioP2;P2;SDS_P1;SDS_P2;PMS_P1;PMS_P2;Temp;Humidity;BMP_temperature;BMP_pressure;BME280_temperature;BME280_humidity;BME280_pressure;Samples;Min_cycle;Max_cycle;Signal;HPM_P1;HPM_P2
2022/08/21 00:01:50;;;;;;;6.43;5.85;;;;;;;13.88;100.00;101135.72;6104081;23;20080;-89
2022/08/21 00:04:18;;;;;;;7.35;6.78;;;;;;;15.25;100.00;101333.53;6071157;23;20029;-86
2022/08/21 00:06:48;;;;;;;6.60;6.15;;;;;;;14.50;100.00;101221.81;6130000;23;20086;-88
2022/08/21 00:09:15;;;;;;;6.85;6.45;;;;;;;13.08;100.00;100950.53;6066312;23;20167;-87
2022/08/21 00:11:41;;;;;;;6.40;5.97;;;;;;;13.59;100.00;101062.72;6127901;23;20009;-88
2022/08/21 00:14:09;;;;;;;7.40;6.80;;;;;;;14.20;100.00;101163.78;6088987;23;20018;-89
2022/08/21 00:16:36;;;;;;;6.90;6.35;;;;;;;13.44;100.00;100996.78;6123780;23;20060;-88
2022/08/21 00:19:03;;;;;;;7.10;6.45;;;;;;;15.02;100.00;101260.94;6044981;23;20049;-87
2022/08/21 00:21:29;;;;;;;6.93;6.43;;;;;;;13.51;100.00;101016.59;6125437;23;20396;-88
2022/08/21 00:23:56;;;;;;;7.47;6.82;;;;;;;14.57;100.00;101188.84;6042955;23;20355;-87
2022/08/21 00:26:22;;;;;;;6.43;6.03;;;;;;;13.24;100.00;100963.66;6124374;23;20084;-87
2022/08/21 00:28:49;;;;;;;7.43;6.75;;;;;;;12.96;100.00;100906.47;6095164;23;20073;-89
2022/08/21 00:31:16;;;;;;;6.95;6.35;;;;;;;14.91;100.00;101208.75;6103503;23;20031;-87
2022/08/21 00:33:44;;;;;;;8.10;6.13;;;;;;;13.35;100.00;100984.16;6044243;23;20017;-89
2022/08/21 00:36:10;;;;;;;8.50;8.00;;;;;;;12.85;100.00;100885.19;6122707;23;20399;-87
2022/08/21 00:38:37;;;;;;;6.70;6.28;;;;;;;14.32;100.00;101140.13;6097824;23;20502;-88
2022/08/21 00:41:07;;;;;;;8.13;7.57;;;;;;;14.73;100.00;101220.44;6096476;23;20013;-89
2022/08/21 00:43:54;;;;;;;6.63;6.22;;;;;;;15.07;100.00;101297.66;6095329;23;20194;-87
2022/08/21 00:46:21;;;;;;;6.63;6.15;;;;;;;14.67;100.00;101229.63;6099009;23;20189;-88
2022/08/21 00:48:54;;;;;;;6.18;5.80;;;;;;;14.69;100.00;101226.84;6097029;23;20017;-86
2022/08/21 00:51:34;;;;;;;7.40;6.22;;;;;;;11.80;100.00;100769.25;6098759;23;20411;-88
2022/08/21 00:54:05;;;;;;;6.95;6.55;;;;;;;14.55;100.00;101230.31;6100543;23;20013;-88
2022/08/21 00:56:37;;;;;;;7.00;6.35;;;;;;;13.95;100.00;101160.81;6129840;23;20013;-87
2022/08/21 00:59:07;;;;;;;10.35;7.22;;;;;;;14.23;100.00;101224.31;6121042;23;20395;-88
2022/08/21 01:01:34;;;;;;;6.22;5.82;;;;;;;13.70;100.00;101120.97;6111583;23;20028;-87
2022/08/21 01:04:01;;;;;;;7.65;7.25;;;;;;;13.12;100.00;101056.63;6092134;23;20514;-87
2022/08/21 01:06:27;;;;;;;6.53;6.13;;;;;;;13.49;100.00;101115.16;6126828;23;20028;-88
2022/08/21 01:08:54;;;;;;;6.78;6.38;;;;;;;14.08;100.00;101231.34;6068695;23;20016;-87
2022/08/21 01:11:21;;;;;;;6.85;6.30;;;;;;;13.22;100.00;101099.97;6098967;23;20012;-88
2022/08/21 01:13:48;;;;;;;7.25;6.03;;;;;;;12.04;100.00;100909.91;6116836;23;20020;-84
2022/08/21 01:16:18;;;;;;;6.68;6.28;;;;;;;14.32;100.00;101281.88;6132876;23;20419;-86
2022/08/21 01:18:45;;;;;;;7.03;6.53;;;;;;;13.42;100.00;101163.91;6035395;23;20042;-88
2022/08/21 01:21:24;;;;;;;7.97;7.40;;;;;;;12.95;100.00;101071.59;6102150;23;20013;-89
2022/08/21 01:23:56;;;;;;;6.75;6.35;;;;;;;12.85;100.00;101088.84;6070802;23;20018;-87
2022/08/21 01:26:26;;;;;;;6.65;6.25;;;;;;;12.44;100.00;100988.44;6122466;23;20008;-90
2022/08/21 01:29:09;;;;;;;7.32;6.93;;;;;;;12.94;100.00;101108.56;6056514;23;20068;-87
2022/08/21 01:31:36;;;;;;;6.45;5.95;;;;;;;11.97;100.00;100955.91;6127209;23;20014;-88
2022/08/21 01:34:04;;;;;;;8.00;7.47;;;;;;;12.73;100.00;101069.31;6090676;23;20527;-89
2022/08/21 01:36:30;;;;;;;6.40;6.00;;;;;;;13.85;100.00;101277.50;6127122;23;20014;-90
2022/08/21 01:38:57;;;;;;;7.38;6.97;;;;;;;11.92;100.00;100937.72;6086871;23;20016;-89
2022/08/21 01:41:24;;;;;;;5.78;5.47;;;;;;;12.14;100.00;100989.19;6064998;23;20018;-87
2022/08/21 01:43:50;;;;;;;7.47;6.75;;;;;;;12.41;100.00;101020.19;6071916;23;20029;-86
2022/08/21 01:46:18;;;;;;;6.90;6.28;;;;;;;12.97;100.00;101124.22;6056537;23;20597;-85
2022/08/21 01:48:45;;;;;;;6.28;5.88;;;;;;;13.98;100.00;101281.16;6098755;23;20028;-86
2022/08/21 01:51:12;;;;;;;7.55;6.43;;;;;;;13.03;100.00;101133.53;6038116;23;20109;-87
2022/08/21 01:53:38;;;;;;;6.78;6.28;;;;;;;12.74;100.00;101128.94;6096501;23;20211;-87
2022/08/21 01:56:08;;;;;;;7.63;7.15;;;;;;;12.71;100.00;101092.25;6042800;23;20007;-88
2022/08/21 01:58:42;;;;;;;6.05;5.75;;;;;;;13.66;100.00;101299.66;6096622;23;20012;-87
2022/08/21 02:01:09;;;;;;;8.57;8.05;;;;;;;13.14;100.00;101211.06;6062294;23;20074;-86
2022/08/21 02:03:36;;;;;;;6.57;6.15;;;;;;;11.87;100.00;101005.50;6125605;23;20012;-87
2022/08/21 02:06:04;;;;;;;7.60;6.88;;;;;;;12.68;100.00;101128.44;6039887;23;20074;-86
2022/08/21 02:08:31;;;;;;;6.20;5.80;;;;;;;12.54;100.00;101089.69;6104611;23;20029;-86
2022/08/21 02:10:58;;;;;;;7.43;6.55;;;;;;;13.29;100.00;101221.69;6045451;23;20045;-87
2022/08/21 02:13:26;;;;;;;6.57;6.07;;;;;;;11.48;100.00;100946.16;6100317;23;20018;-87
2022/08/21 02:15:52;;;;;;;6.40;5.90;;;;;;;13.03;100.00;101208.19;6038291;23;20027;-86
2022/08/21 02:18:19;;;;;;;6.80;6.10;;;;;;;12.99;100.00;101182.94;6101391;23;20021;-87
2022/08/21 02:20:49;;;;;;;8.38;6.40;;;;;;;13.50;100.00;101264.53;6063643;23;20073;-86
2022/08/21 02:23:22;;;;;;;6.00;5.60;;;;;;;13.45;100.00;101258.66;6072067;23;20026;-87
2022/08/21 02:26:04;;;;;;;6.57;6.10;;;;;;;13.17;100.00;101244.34;6074357;23;20006;-87
2022/08/21 02:28:31;;;;;;;5.90;5.60;;;;;;;12.27;100.00;101078.88;6095356;23;20258;-89
2022/08/21 02:30:57;;;;;;;7.15;6.65;;;;;;;11.30;100.00;100952.38;6045977;23;20469;-86
2022/08/21 02:33:25;;;;;;;6.10;5.80;;;;;;;13.40;100.00;101266.81;6104068;23;20077;-88
2022/08/21 02:35:52;;;;;;;7.00;6.30;;;;;;;12.74;100.00;101199.19;6071545;23;20115;-85
2022/08/21 02:38:25;;;;;;;6.13;5.72;;;;;;;13.33;100.00;101257.53;6105041;23;20018;-89
2022/08/21 02:40:53;;;;;;;6.45;5.95;;;;;;;11.57;100.00;101006.16;6095577;23;20014;-87
2022/08/21 02:43:21;;;;;;;6.78;6.10;;;;;;;11.22;100.00;100938.78;6112543;23;20023;-87
2022/08/21 02:45:48;;;;;;;6.40;5.93;;;;;;;13.14;100.00;101255.88;6099392;23;20013;-87
2022/08/21 02:48:20;;;;;;;6.10;5.70;;;;;;;12.23;100.00;101128.16;6071893;23;20819;-88
2022/08/21 02:50:51;;;;;;;6.10;5.70;;;;;;;12.54;100.00;101177.41;6096671;23;20448;-88
2022/08/21 02:53:19;;;;;;;6.07;5.75;;;;;;;12.78;100.00;101211.28;6066533;23;20018;-89
2022/08/21 02:55:48;;;;;;;5.78;5.47;;;;;;;13.14;100.00;101247.13;6103618;23;20044;-91
2022/08/21 02:58:17;;;;;;;6.13;5.72;;;;;;;11.44;100.00;100968.28;6054196;23;20022;-87
2022/08/21 03:00:44;;;;;;;6.15;5.75;;;;;;;12.01;100.00;101072.31;6074782;23;20456;-89
2022/08/21 03:03:14;;;;;;;10.15;6.97;;;;;;;11.96;100.00;101065.50;6056576;23;20023;-89
2022/08/21 03:05:42;;;;;;;6.07;5.72;;;;;;;13.10;100.00;101241.16;6105035;23;20038;-88
2022/08/21 03:08:11;;;;;;;7.40;6.93;;;;;;;13.04;100.00;101244.13;6069770;23;20041;-89
2022/08/21 03:10:42;;;;;;;5.68;5.38;;;;;;;12.11;100.00;101111.25;6102512;23;20108;-89
2022/08/21 03:13:09;;;;;;;7.35;6.95;;;;;;;11.13;100.00;100937.47;6062924;23;20097;-89
2022/08/21 03:15:36;;;;;;;7.75;6.43;;;;;;;11.08;100.00;100948.19;6098042;23;20073;-88
2022/08/21 03:18:04;;;;;;;6.47;6.07;;;;;;;12.89;100.00;101235.28;6075167;23;20372;-88
2022/08/21 03:20:32;;;;;;;7.50;5.95;;;;;;;10.81;100.00;100910.22;6103597;23;20009;-86
2022/08/21 03:23:00;;;;;;;6.97;6.57;;;;;;;12.68;100.00;101226.72;6082024;23;20523;-87
2022/08/21 03:25:28;;;;;;;6.70;6.25;;;;;;;11.02;100.00;100985.28;6078140;23;20399;-87
2022/08/21 03:28:09;;;;;;;7.05;6.43;;;;;;;12.47;100.00;101225.19;6097634;23;20013;-85
2022/08/21 03:30:38;;;;;;;;;;;;;;;12.40;100.00;101232.56;6050847;23;20024;-86
2022/08/21 03:33:05;;;;;;;7.00;6.60;;;;;;;11.51;100.00;101090.56;6067153;23;19926;-84
2022/08/21 03:35:31;;;;;;;6.68;6.15;;;;;;;11.99;100.00;101153.97;6052603;23;20036;-85
2022/08/21 03:37:58;;;;;;;6.57;6.03;;;;;;;12.21;100.00;101166.00;6026222;23;20027;-86
2022/08/21 03:40:24;;;;;;;7.43;6.93;;;;;;;10.36;100.00;100855.53;6048640;23;20021;-83
2022/08/21 03:42:51;;;;;;;7.15;6.65;;;;;;;11.86;100.00;101089.72;6017950;23;20550;-84
2022/08/21 03:45:18;;;;;;;7.28;6.78;;;;;;;12.64;100.00;101209.38;6063167;23;20012;-86
2022/08/21 03:47:57;;;;;;;6.32;5.93;;;;;;;11.91;100.00;101095.63;6015347;23;20045;-86
2022/08/21 03:50:26;;;;;;;6.43;6.00;;;;;;;12.71;100.00;101215.19;6067902;23;20074;-86
2022/08/21 03:52:52;;;;;;;7.30;6.57;;;;;;;12.72;100.00;101224.78;6037404;23;20221;-84
2022/08/21 03:55:19;;;;;;;7.03;6.60;;;;;;;9.76;100.00;100721.16;6046720;23;20056;-88
2022/08/21 03:57:45;;;;;;;6.70;6.20;;;;;;;12.08;100.00;101114.00;6071546;23;20021;-87
2022/08/21 04:00:14;;;;;;;7.97;7.47;;;;;;;12.39;100.00;101154.53;6077742;23;20251;-88
2022/08/21 04:02:43;;;;;;;7.32;6.72;;;;;;;12.11;100.00;101121.75;6037922;23;20090;-89
2022/08/21 04:05:11;;;;;;;8.27;7.65;;;;;;;12.81;100.00;101223.41;6062751;23;20028;-85
2022/08/21 04:07:38;;;;;;;7.53;6.93;;;;;;;12.11;100.00;101124.38;6061563;23;20274;-86
2022/08/21 04:10:06;;;;;;;7.78;7.28;;;;;;;12.80;100.00;101230.47;6010972;23;20022;-90
2022/08/21 04:12:33;;;;;;;6.88;6.38;;;;;;;12.23;100.00;101150.97;6063376;23;20014;-89
2022/08/21 04:15:01;;;;;;;7.53;6.95;;;;;;;11.78;100.00;101087.47;6096498;23;20085;-89
2022/08/21 04:17:28;;;;;;;7.63;6.30;;;;;;;10.91;100.00;100937.72;6056612;23;20081;-90
2022/08/21 04:19:56;;;;;;;6.32;5.82;;;;;;;12.26;100.00;101183.25;6017003;23;20002;-88
2022/08/21 04:22:23;;;;;;;8.02;7.25;;;;;;;12.44;100.00;101207.78;6050996;23;20040;-90
2022/08/21 04:24:49;;;;;;;6.65;6.25;;;;;;;12.18;100.00;101167.00;6015740;23;20740;-90
2022/08/21 04:27:16;;;;;;;5.95;5.55;;;;;;;11.76;100.00;101116.47;6091630;23;20025;-88
2022/08/21 04:29:42;;;;;;;6.28;5.85;;;;;;;11.75;100.00;101104.28;6067073;23;20073;-88
2022/08/21 04:32:09;;;;;;;8.80;6.85;;;;;;;10.71;100.00;100936.06;6072562;23;20384;-88
2022/08/21 04:34:36;;;;;;;6.72;6.18;;;;;;;12.27;100.00;101182.34;6035910;23;20017;-86
2022/08/21 04:37:05;;;;;;;7.68;7.10;;;;;;;11.43;100.00;101028.81;6085011;23;20038;-86
2022/08/21 04:39:31;;;;;;;6.38;5.97;;;;;;;12.32;100.00;101182.94;6030167;23;20050;-87
2022/08/21 04:41:58;;;;;;;7.15;6.75;;;;;;;12.04;100.00;101124.78;6068244;23;20370;-87
2022/08/21 04:44:24;;;;;;;7.75;7.18;;;;;;;12.13;100.00;101148.00;6032461;23;20109;-86
2022/08/21 04:46:51;;;;;;;7.18;6.68;;;;;;;12.57;100.00;101192.22;6034259;23;20222;-84
2022/08/21 04:49:18;;;;;;;7.40;6.70;;;;;;;12.27;100.00;101116.56;6041216;23;20017;-88
2022/08/21 04:51:47;;;;;;;8.27;6.78;;;;;;;11.46;100.00;101007.63;6034927;23;20047;-87
2022/08/21 04:54:22;;;;;;;7.70;7.20;;;;;;;12.46;100.00;101084.81;6086571;23;20640;-87
2022/08/21 04:56:59;;;;;;;6.88;6.38;;;;;;;13.39;100.00;101244.03;6016508;23;20540;-87
2022/08/21 04:59:31;;;;;;;7.35;6.32;;;;;;;13.74;100.00;101220.09;6049860;23;20029;-88
2022/08/21 05:01:59;;;;;;;8.75;8.02;;;;;;;13.66;100.00;101165.16;6045469;23;20026;-88
2022/08/21 05:04:30;;;;;;;6.82;6.40;;;;;;;13.05;100.00;101069.31;6088252;23;20590;-87
2022/08/21 05:07:01;;;;;;;9.02;8.32;;;;;;;14.08;100.00;101186.47;6025604;23;20042;-87
2022/08/21 05:09:28;;;;;;;8.35;7.65;;;;;;;14.47;100.00;101224.63;6063027;23;20034;-87
2022/08/21 05:11:55;;;;;;;7.90;7.22;;;;;;;14.19;100.00;101155.00;6042353;23;20013;-85
2022/08/21 05:14:22;;;;;;;8.13;7.53;;;;;;;14.51;100.00;101202.38;6095115;23;20022;-86
2022/08/21 05:16:48;;;;;;;9.32;8.40;;;;;;;13.54;100.00;101058.56;6035474;23;20014;-87
2022/08/21 05:19:15;;;;;;;7.57;6.97;;;;;;;14.23;100.00;101132.78;6088321;23;20034;-87
2022/08/21 05:21:43;;;;;;;8.23;7.30;;;;;;;12.68;100.00;100834.34;6031802;23;20089;-88
2022/08/21 05:24:11;;;;;;;8.57;8.07;;;;;;;12.40;100.00;100765.84;6085054;23;20041;-86
2022/08/21 05:26:38;;;;;;;7.85;7.05;;;;;;;15.05;100.00;101201.75;6037497;23;20019;-88
2022/08/21 05:29:13;;;;;;;7.20;6.70;;;;;;;14.53;100.00;101056.09;6087121;23;20092;-88
2022/08/21 05:31:40;;;;;;;7.38;6.60;;;;;;;15.74;100.00;101215.88;6054846;23;20026;-87
2022/08/21 05:34:07;;;;;;;8.52;7.72;;;;;;;15.71;100.00;101169.22;6056406;23;20048;-87
2022/08/21 05:36:34;;;;;;;7.60;7.00;;;;;;;15.82;100.00;101125.38;6007688;23;20111;-86
2022/08/21 05:39:01;;;;;;;8.70;8.10;;;;;;;16.51;100.00;101208.03;6053418;23;20022;-86
2022/08/21 05:41:28;;;;;;;7.18;6.68;;;;;;;16.35;100.00;101129.63;6063621;23;20511;-87
2022/08/21 05:43:54;;;;;;;8.77;7.93;;;;;;;17.24;100.00;101220.59;6040071;23;20037;-87
2022/08/21 05:46:21;;;;;;;7.13;6.43;;;;;;;16.64;100.00;101057.84;6100963;23;20018;-86
2022/08/21 05:48:48;;;;;;;7.30;6.82;;;;;;;17.89;98.21;101184.88;6024930;23;20205;-87
2022/08/21 05:51:15;;;;;;;6.80;6.30;;;;;;;17.68;94.64;101130.72;6048651;23;20155;-87
2022/08/21 05:53:43;;;;;;;9.40;7.18;;;;;;;18.02;89.35;101210.50;6030531;23;20057;-86
2022/08/21 05:56:11;;;;;;;8.15;7.45;;;;;;;18.15;88.82;101232.53;6067341;23;20106;-86
2022/08/21 05:58:38;;;;;;;7.85;7.15;;;;;;;17.54;90.25;101195.47;6012167;23;20039;-86
2022/08/21 06:01:06;;;;;;;7.95;7.13;;;;;;;17.25;90.92;101200.22;6075189;23;20031;-86
2022/08/21 06:03:36;;;;;;;7.82;7.20;;;;;;;16.84;93.33;101223.44;6007014;23;20019;-86
2022/08/21 06:06:03;;;;;;;8.25;7.65;;;;;;;16.81;96.15;101225.41;6068075;23;20338;-84
2022/08/21 06:08:30;;;;;;;7.25;6.72;;;;;;;14.99;96.50;100967.75;6034900;23;20018;-85
2022/08/21 06:10:58;;;;;;;7.60;7.07;;;;;;;16.87;98.32;101254.19;6028372;23;20023;-87
2022/08/21 06:13:26;;;;;;;7.38;6.75;;;;;;;16.11;97.80;101115.44;6051658;23;20046;-86
2022/08/21 06:16:13;;;;;;;7.53;7.03;;;;;;;16.89;98.90;101239.00;6041846;23;20011;-87
2022/08/21 06:18:44;;;;;;;7.57;6.97;;;;;;;16.54;100.00;101207.84;6054576;23;20037;-87
2022/08/21 06:21:12;;;;;;;8.32;7.72;;;;;;;16.90;99.39;101243.38;6028917;23;20022;-86
2022/08/21 06:23:39;;;;;;;7.93;7.40;;;;;;;16.82;99.10;101235.97;6088028;23;20014;-87
2022/08/21 06:26:07;;;;;;;10.23;6.63;;;;;;;17.07;98.26;101248.31;6018191;23;20150;-87
2022/08/21 06:28:36;;;;;;;7.38;6.78;;;;;;;16.96;98.01;101227.03;6053906;23;20232;-86
2022/08/21 06:31:36;;;;;;;8.20;7.38;;;;;;;16.90;98.09;101212.41;6038174;23;20018;-86
2022/08/21 06:34:03;;;;;;;8.15;7.55;;;;;;;16.87;97.54;101207.31;6072112;23;20275;-87
2022/08/21 06:36:29;;;;;;;8.18;7.55;;;;;;;16.89;96.56;101186.00;6005682;23;20016;-86
2022/08/21 06:38:56;;;;;;;8.13;7.43;;;;;;;16.78;96.56;101168.19;6060520;23;20014;-86
2022/08/21 06:41:23;;;;;;;6.47;6.07;;;;;;;17.30;96.84;101269.72;6032017;23;20187;-86
2022/08/21 06:43:53;;;;;;;6.88;6.38;;;;;;;17.62;95.22;101256.78;6021795;23;20038;-86
2022/08/21 06:46:20;;;;;;;6.53;6.13;;;;;;;16.68;93.36;101058.47;6060042;23;20468;-86
2022/08/21 06:48:46;;;;;;;7.35;6.75;;;;;;;17.62;92.00;101193.09;6021783;23;20575;-85
2022/08/21 06:51:13;;;;;;;6.40;6.00;;;;;;;17.79;90.26;101213.06;6063728;23;20188;-86
2022/08/21 06:53:39;;;;;;;6.82;6.40;;;;;;;18.11;90.35;101233.72;6043252;23;20041;-88
2022/08/21 06:56:06;;;;;;;7.20;6.55;;;;;;;18.23;87.98;101240.78;6072970;23;20088;-87
2022/08/21 06:58:32;;;;;;;6.75;6.20;;;;;;;18.02;88.28;101179.50;6020082;23;20465;-88
2022/08/21 07:00:58;;;;;;;7.78;7.00;;;;;;;18.16;86.35;101199.69;6061751;23;20069;-86
2022/08/21 07:03:29;;;;;;;6.38;5.97;;;;;;;17.99;85.78;101158.47;6054572;23;20019;-86
2022/08/21 07:05:59;;;;;;;7.43;6.55;;;;;;;17.32;86.13;101088.25;6008289;23;20355;-86
2022/08/21 07:08:27;;;;;;;6.63;6.10;;;;;;;18.42;87.19;101236.69;6036944;23;20441;-86
2022/08/21 07:10:57;;;;;;;7.13;6.65;;;;;;;17.85;86.45;101178.09;6044815;23;20086;-87
2022/08/21 07:13:24;;;;;;;6.95;6.22;;;;;;;18.34;87.56;101190.31;6053519;23;20093;-87
2022/08/21 07:15:50;;;;;;;6.20;5.80;;;;;;;17.62;86.07;101054.19;6042817;23;20066;-88
2022/08/21 07:18:20;;;;;;;6.53;6.00;;;;;;;18.28;85.25;101184.63;6071180;23;20037;-86
2022/08/21 07:20:46;;;;;;;6.65;6.25;;;;;;;18.41;86.49;101185.38;6059323;23;20030;-86
2022/08/21 07:23:42;;;;;;;6.43;6.03;;;;;;;19.01;85.22;101233.88;5996259;23;20029;-87
2022/08/21 07:26:09;;;;;;;6.75;6.35;;;;;;;17.62;84.08;100967.47;6056923;23;20341;-86
2022/08/21 07:28:36;;;;;;;6.30;5.82;;;;;;;19.21;82.35;101203.03;6003702;23;20351;-87
2022/08/21 07:31:04;;;;;;;8.13;6.28;;;;;;;19.56;80.70;101239.22;6089635;23;20033;-86
2022/08/21 07:33:33;;;;;;;6.25;5.80;;;;;;;19.61;78.90;101231.72;6067786;23;20095;-86
2022/08/21 07:36:00;;;;;;;6.63;6.22;;;;;;;19.65;77.72;101208.38;6074720;23;20166;-86
2022/08/21 07:38:26;;;;;;;5.80;5.50;;;;;;;18.84;77.27;101069.50;6060604;23;20313;-87
2022/08/21 07:40:55;;;;;;;6.07;5.75;;;;;;;19.89;75.21;101229.50;6089977;23;20046;-86
2022/08/21 07:43:22;;;;;;;6.30;5.80;;;;;;;19.60;74.80;101245.16;6037064;23;20401;-87
2022/08/21 07:45:49;;;;;;;6.20;5.60;;;;;;;19.80;76.24;101238.22;6087788;23;20495;-87
2022/08/21 07:48:15;;;;;;;6.57;6.13;;;;;;;19.29;76.21;101155.34;6095150;23;20115;-87
2022/08/21 07:50:43;;;;;;;6.78;5.63;;;;;;;19.75;74.28;101245.78;6068660;23;20403;-86
2022/08/21 07:53:09;;;;;;;6.45;5.88;;;;;;;19.82;73.61;101234.47;6098093;23;20146;-86
2022/08/21 07:55:36;;;;;;;9.13;6.20;;;;;;;20.06;73.72;101236.91;6067057;23;20528;-86
2022/08/21 07:58:02;;;;;;;6.68;6.18;;;;;;;19.86;73.45;101182.63;6095833;23;20017;-86
2022/08/21 08:00:29;;;;;;;6.18;5.40;;;;;;;20.10;72.12;101190.38;6048302;23;20083;-86
2022/08/21 08:02:57;;;;;;;6.90;6.30;;;;;;;20.29;72.24;101180.81;6121359;23;20068;-87
2022/08/21 08:05:28;;;;;;;5.78;5.40;;;;;;;20.67;71.61;101222.88;6071264;23;20015;-87
2022/08/21 08:07:55;;;;;;;6.93;6.32;;;;;;;20.49;71.03;101174.59;6092653;23;20017;-86
2022/08/21 08:10:22;;;;;;;5.70;5.30;;;;;;;20.87;71.03;101212.28;6066555;23;20015;-86
2022/08/21 08:12:51;;;;;;;6.22;5.80;;;;;;;20.80;67.45;101216.47;6087919;23;20072;-86
2022/08/21 08:15:21;;;;;;;5.88;5.50;;;;;;;20.92;69.18;101210.06;6128508;23;20027;-87
2022/08/21 08:17:48;;;;;;;5.30;5.10;;;;;;;20.99;69.13;101183.66;6055262;23;20014;-86
2022/08/21 08:20:15;;;;;;;6.45;6.10;;;;;;;21.03;66.47;101169.94;6117158;23;20259;-86
2022/08/21 08:22:42;;;;;;;5.60;5.30;;;;;;;21.34;66.40;101167.16;6089541;23;20014;-87
2022/08/21 08:25:16;;;;;;;5.72;5.43;;;;;;;21.23;62.75;101159.31;6114662;23;20021;-86
2022/08/21 08:27:43;;;;;;;5.43;5.13;;;;;;;21.65;63.91;101191.09;6070612;23;20026;-87
2022/08/21 08:30:12;;;;;;;6.45;6.07;;;;;;;21.46;62.04;101146.56;6110509;23;20027;-88
2022/08/21 08:32:39;;;;;;;6.00;5.50;;;;;;;21.70;61.81;101183.53;6029454;23;20019;-85
2022/08/21 08:35:07;;;;;;;6.80;6.40;;;;;;;21.30;61.92;101109.69;6057032;23;20028;-87
2022/08/21 08:37:37;;;;;;;5.97;5.68;;;;;;;22.29;61.90;101213.72;6015252;23;20011;-87
2022/08/21 08:40:28;;;;;;;6.10;5.80;;;;;;;22.29;60.69;101161.13;6071731;23;20145;-87
2022/08/21 08:42:55;;;;;;;5.68;5.38;;;;;;;22.29;59.01;101153.09;6016488;23;20109;-86
2022/08/21 08:45:26;;;;;;;5.63;5.32;;;;;;;22.41;59.17;101163.59;6088530;23;20010;-86
2022/08/21 08:47:58;;;;;;;5.90;5.40;;;;;;;22.53;58.95;101166.94;6009477;23;20027;-87
2022/08/21 08:50:40;;;;;;;5.45;5.15;;;;;;;22.86;59.49;101200.31;6082058;23;20018;-86
2022/08/21 08:53:21;;;;;;;6.80;6.35;;;;;;;22.83;57.07;101166.69;6025531;23;20085;-88
2022/08/21 08:55:51;;;;;;;5.57;5.28;;;;;;;23.35;56.56;101195.56;6072390;23;20435;-88
2022/08/21 08:58:30;;;;;;;5.53;5.32;;;;;;;22.60;56.62;101066.41;6063778;23;20585;-87
2022/08/21 09:00:57;;;;;;;6.18;5.85;;;;;;;23.04;54.87;101104.03;6089772;23;20038;-86
2022/08/21 09:03:25;;;;;;;5.63;5.30;;;;;;;23.64;54.64;101183.78;6024871;23;20073;-87
2022/08/21 09:06:06;;;;;;;6.07;5.60;;;;;;;23.53;53.44;101195.56;6078554;23;20374;-84
2022/08/21 09:08:49;;;;;;;5.80;5.40;;;;;;;23.54;54.60;101191.06;6061790;23;20018;-86
2022/08/21 09:11:27;;;;;;;6.35;5.53;;;;;;;23.58;55.07;101195.97;6085920;23;20565;-88
2022/08/21 09:14:02;;;;;;;6.13;5.43;;;;;;;23.54;55.68;101193.75;6056468;23;20082;-85
2022/08/21 09:16:37;;;;;;;5.78;5.40;;;;;;;23.13;56.21;101195.97;6067918;23;20514;-85
2022/08/21 09:19:25;;;;;;;6.28;5.97;;;;;;;22.89;55.70;101173.25;6021988;23;20196;-85
2022/08/21 09:22:02;;;;;;;6.03;5.63;;;;;;;22.13;56.01;101037.03;6087825;23;20021;-84
2022/08/21 09:24:45;;;;;;;5.68;5.28;;;;;;;22.97;55.32;101143.91;6059939;23;20288;-85
2022/08/21 09:27:18;;;;;;;6.00;5.50;;;;;;;23.44;55.22;101201.84;6062499;23;20038;-85
2022/08/21 09:29:47;;;;;;;5.40;5.10;;;;;;;23.74;54.71;101192.59;6010171;23;20015;-86
2022/08/21 09:32:27;;;;;;;5.60;5.30;;;;;;;23.81;55.65;101204.38;6100515;23;20026;-85
2022/08/21 09:35:19;;;;;;;6.40;6.10;;;;;;;23.98;54.57;101188.47;6035949;23;20014;-85
2022/08/21 09:37:53;;;;;;;5.80;5.40;;;;;;;24.03;54.29;101176.25;6064278;23;20062;-85
2022/08/21 09:40:23;;;;;;;5.70;5.35;;;;;;;24.23;53.92;101190.31;6066799;23;20010;-85
2022/08/21 09:42:56;;;;;;;5.85;5.55;;;;;;;24.01;53.64;101145.25;6031016;23;20023;-85
2022/08/21 09:45:23;;;;;;;6.00;5.65;;;;;;;24.30;53.51;101174.44;6096095;23;20006;-85
2022/08/21 09:47:49;;;;;;;5.80;5.50;;;;;;;24.21;53.66;101135.97;6032405;23;20021;-86
2022/08/21 09:50:21;;;;;;;6.35;5.95;;;;;;;24.54;52.11;101183.66;6080755;23;20026;-86
2022/08/21 09:52:51;;;;;;;5.65;5.35;;;;;;;24.42;52.35;101191.13;6031870;23;20120;-86
2022/08/21 09:58:14;;;;;;;6.10;5.70;;;;;;;24.45;52.68;101180.88;6037524;23;20226;-87
2022/08/21 10:00:42;;;;;;;6.03;5.65;;;;;;;24.23;52.33;101157.28;6036489;23;20097;-87
2022/08/21 10:03:18;;;;;;;7.55;7.15;;;;;;;22.54;52.45;100928.75;6026371;23;20030;-86
2022/08/21 10:05:54;;;;;;;6.22;5.75;;;;;;;23.92;52.19;101189.09;6086788;23;20011;-85
2022/08/21 10:08:22;;;;;;;5.72;5.45;;;;;;;23.64;53.60;101101.56;6055612;23;20019;-87
2022/08/21 10:11:05;;;;;;;5.80;5.50;;;;;;;24.01;51.20;101121.94;6035817;23;20397;-86
2022/08/21 10:13:53;;;;;;;6.20;5.80;;;;;;;23.86;53.44;101188.69;6001982;23;20023;-85
2022/08/21 10:16:52;;;;;;;6.10;5.60;;;;;;;24.15;52.53;101166.13;6053767;23;20018;-86
2022/08/21 10:19:22;;;;;;;5.65;5.35;;;;;;;24.62;52.65;101183.72;6055566;23;20116;-87
2022/08/21 10:22:02;;;;;;;5.95;5.50;;;;;;;24.51;51.52;101144.56;6027298;23;20357;-86
2022/08/21 10:24:57;;;;;;;5.70;5.40;;;;;;;24.26;49.47;101047.84;6054916;23;20018;-87
2022/08/21 10:27:26;;;;;;;5.63;5.32;;;;;;;24.67;50.47;101173.31;5996894;23;20172;-87
2022/08/21 10:30:13;;;;;;;6.00;5.60;;;;;;;25.03;50.03;101173.13;6088859;23;20100;-86
2022/08/21 10:33:01;;;;;;;5.70;5.40;;;;;;;25.25;49.50;101156.41;6034551;23;20006;-86
2022/08/21 10:35:31;;;;;;;5.97;5.45;;;;;;;24.69;48.49;101106.91;6073095;23;20046;-86
2022/08/21 10:38:23;;;;;;;6.95;6.55;;;;;;;24.47;48.79;101191.47;6025329;23;20014;-86
2022/08/21 10:41:27;;;;;;;6.60;6.20;;;;;;;24.31;49.02;101122.47;6116295;23;20010;-86
2022/08/21 10:44:28;;;;;;;6.80;6.30;;;;;;;24.66;49.13;101175.16;6080471;23;20052;-84
2022/08/21 10:46:57;;;;;;;5.88;5.57;;;;;;;25.14;48.84;101170.13;6115582;23;20318;-86
2022/08/21 10:49:39;;;;;;;5.68;5.38;;;;;;;24.62;48.90;101046.84;6071134;23;20022;-86
2022/08/21 10:52:35;;;;;;;6.70;6.25;;;;;;;25.02;47.84;101117.75;6108436;23;20134;-86
2022/08/21 10:55:11;;;;;;;6.20;5.90;;;;;;;25.27;48.18;101172.38;6075752;23;20874;-86
2022/08/21 10:57:37;;;;;;;5.90;5.60;;;;;;;25.04;48.78;101169.44;6124392;23;20021;-87
2022/08/21 11:00:15;;;;;;;8.65;8.07;;;;;;;24.44;48.38;101046.91;6080630;23;20464;-86
2022/08/21 11:02:49;;;;;;;5.75;5.45;;;;;;;25.68;48.88;101167.06;6105562;23;20364;-85
2022/08/21 11:05:47;;;;;;;5.90;5.50;;;;;;;25.40;46.73;101108.25;6108016;23;20005;-86
2022/08/21 11:08:23;;;;;;;5.68;5.35;;;;;;;25.93;46.92;101167.06;6042449;23;20022;-85
2022/08/21 11:11:13;;;;;;;8.48;5.80;;;;;;;25.17;46.66;101021.22;6101049;23;20036;-85
2022/08/21 11:13:51;;;;;;;6.10;5.70;;;;;;;26.06;46.55;101153.97;6067736;23;20067;-86
2022/08/21 11:16:41;;;;;;;5.85;5.55;;;;;;;26.20;46.51;101171.22;6113159;23;20039;-86
2022/08/21 11:19:28;;;;;;;6.70;6.10;;;;;;;26.49;46.51;101159.06;6067993;23;20214;-87
2022/08/21 11:22:34;;;;;;;6.13;5.82;;;;;;;26.46;46.46;101179.06;6103329;23;20014;-86
2022/08/21 11:25:22;;;;;;;6.55;6.15;;;;;;;26.60;45.81;101154.19;6072000;23;20014;-86
2022/08/21 11:27:54;;;;;;;5.90;5.60;;;;;;;26.50;45.25;101161.59;6044785;23;20022;-87
2022/08/21 11:30:23;;;;;;;6.10;5.60;;;;;;;26.65;45.95;101159.84;6061495;23;20022;-87
2022/08/21 11:33:27;;;;;;;6.05;5.65;;;;;;;26.42;45.33;101173.22;6066796;23;20199;-86
2022/08/21 11:36:19;;;;;;;6.15;5.68;;;;;;;25.80;44.70;101068.91;6108294;23;20045;-84
2022/08/21 11:38:56;;;;;;;5.85;5.55;;;;;;;25.80;45.61;101073.44;6044021;23;20719;-87
2022/08/21 11:41:47;;;;;;;5.57;5.28;;;;;;;25.96;46.22;101137.13;6116099;23;20096;-87
2022/08/21 11:44:37;;;;;;;5.80;5.53;;;;;;;25.20;45.12;100961.81;6040749;23;20115;-86